Filtrer par Nom Sexe Groupe d'age
Picarde Baie de Somme GranFondo 2006
RG. DOS. TEMPS CAT RG. POINTS
1 2 PERCQUE FRANCK 04:53:29:000 D 1 300.00 , FRANCE
2 213 BUCOVAZ ALAIN 04:56:03:000 D 2 299.00 VILVOORDE, BELGIQUE
3 669 BRUCE MARK 04:56:06:000 D 3 298.00 CHESHAM, Royaume-Uni
4 34 RICHARD DAMIEN 04:56:07:000 C 1 300.00 EPINAL, France
5 32 LAMONTAGNE PIERRE MARC 04:58:29:000 E 1 300.00 ST AUBIN, FRANCE
6 779 LANCIEN OLIVIER 04:58:29:000 C 2 299.00 LAON, FRANCE
7 191 HENON GUY 04:58:30:000 F 1 300.00 FREJUS, France
8 322 CEULEMANS GEERT 04:58:30:000 D 4 297.00 LIER, BELGIQUE
9 122 ROOSE ANDY 04:58:32:000 C 3 298.00 LUXEMBOURG, 23
11 365 LEMOUR LIONEL 04:58:36:000 D 5 296.00 BOULOGNE, FRANCE
12 602 BAROT JEAN-LOUIS 04:58:38:000 E 3 298.00 BAISIEUX, FRANCE
13 199 OSSIEUR MICHAEL 04:58:45:000 C 4 297.00 VOSSELARE, Belgique
14 780 LANCIEN FREDERIC 04:58:45:000 D 6 295.00 CREPY, FRANCE
15 641 DEMEY PATRICK 04:58:46:000 D 7 294.00 VERQUIN, FRANCE
16 763 CROISIER ARNAUD 04:58:46:000 C 5 296.00 ELLEMELLE, BELGIQUE
17 794 WEGNER DIDIER 04:58:46:000 D 8 293.00 LIEGE, BELGIQUE
18 56 PASTOR JOSE LUIS 04:58:47:000 D 9 292.00 TRAVAILLAN, FRANCE
19 231 SAGNIEZ LUDOVIC 04:58:50:000 C 6 295.00 FRANVILLIERS, FRANCE
20 157 MOREL GILLES 04:58:52:000 F 2 299.00 ANNECY LE VIEUX, FRANCE
21 355 LOISEL FRANCK 04:58:52:000 D 10 291.00 AUZEVILLE TOLOSANE, FRANCE
22 692 MARTIN NEIL 04:58:53:000 E 4 297.00 TAMWORTH, Royaume-Uni
23 1 CASPER JIMMY 04:59:07:000 D 11 290.00 MONTDIDIER, France
24 207 BARBRY RAYMOND 05:00:36:000 E 5 296.00 ACHICOURT, FRANCE
25 751 PIETERS BART 05:03:26:000 F 3 298.00 LIERDE, BELGIQUE
26 929 GUENARD FRANCK 05:03:27:000 E 6 295.00 MAISONS ALFORT, FRANCE
27 731 BREHONNET ARNAUD 05:03:28:000 D 12 289.00 BRUXELLES, BELGIQUE
28 150 PONS BERNARD 05:03:56:000 E 7 294.00 AUBAGNE, FRANCE
29 200 VERTRIEST BERT 05:03:56:000 D 13 288.00 NAZARETH, Belgique
30 774 FAUQUEMBERGUE FREDERIC 05:03:57:000 C 7 294.00 CAOURS, FRANCE
31 308 MORGAN IAN 05:03:58:000 D 14 287.00 BRENTWOOD, Royaume-Uni
32 519 DELACHAPELLE OLIVIER 05:03:58:000 C 8 293.00 BURY, FRANCE
33 690 BOND IAN 05:04:26:000 C 9 292.00 CANNOCK STAFFS, Royaume-Uni
34 771 F0URY EMMANUEL 05:04:30:000 D 15 286.00 EAUCOURT, FRANCE
35 544 HINCHLIFFE ROBERT 05:04:31:000 D 16 285.00 DONCASTER, Royaume-Uni
36 713 MILLET LAURENT 05:04:31:000 D 17 284.00 MEUDON, FRANCE
37 20 CHANUT CHRISTOPHE 05:04:34:000 D 18 283.00 CRAPONNE, FRANCE
38 601 LIEBERT JACKY 05:05:08:000 D 19 282.00 , FRANCE
39 600 VABRE AURELIEN 05:05:43:000 C 10 291.00 AMFREVILLE LA MI VOIE, FRANCE
40 776 BONNECHERE GEOFFREY 05:06:51:000 C 11 290.00 AMIENS, FRANCE
41 17 RYCKBOSCH JAN 05:07:14:000 D 20 281.00 MELSELE, Belgique
42 791 PRINSEN ANDRE 05:07:15:000 E 8 293.00 GEEL, BELGIQUE
43 208 FIRMIN THIERRY 05:09:42:000 D 21 280.00 CLAYE SOUILLY, FRANCE
44 287 STROUPPE ARNAUD 05:09:43:000 D 22 279.00 DONNERY, FRANCE
45 290 BALAUDE JEAN FRANCOIS 05:10:31:000 E 9 292.00 ANTONY, FRANCE
46 341 MIDDLETON KEITH 05:10:32:000 E 10 291.00 LINCOLN, Royaume-Uni
47 240 OPSOMER THIERRY 05:10:33:000 E 11 290.00 BAS-WARNETON, Belgique
48 696 HARLAND STEVE 05:11:49:000 G 1 300.00 SUTTON, Royaume-Uni
49 515 HEINIX CHRISTOPHE 05:17:16:000 D 23 278.00 BOECHOUT, BELGIQUE
50 354 LACOCHE CEDRIC 05:17:58:000 C 12 289.00 BOIS D'ARCY, FRANCE
51 711 BATEMAN COLIN 05:19:41:000 F 4 297.00 CROYDON, Royaume-uni
52 799 MOONS ERIC 05:19:42:000 E 12 289.00 TESSENDERLO, BELGIQUE
53 75 FOULOUNOUX THIERRY 05:19:42:500 F 5 296.00 PARIS, FRANCE
54 174 CLEMENT LAURENT 05:19:42:800 E 13 288.00 ANNONAY, France
55 223 BRIOUL DOMINIQUE 05:19:43:000 E 14 287.00 HAZEBROUCK, France
56 757 RODRIGUEZ PATRICK 05:19:43:000 D 24 277.00 Amiens, France
57 796 AMBROOS HEDWIG 05:19:43:000 E 15 286.00 LAAKDAL, BELGIQUE
58 218 BEERNAERT DIRK 05:19:44:000 E 16 285.00 KUURNE, BELGIQUE
59 748 VAN WAYENBERGHE FREDDY 05:19:45:000 F 6 295.00 GERAARDSBERGEN, BELGIQUE
60 756 DEFOSSE CHRISTOPHE 05:19:45:000 D 25 276.00 VAUCHELLES LES QUESNOY, France
61 362 VERGNE JOEL 05:19:46:000 D 26 275.00 ATHIS MONS, FRANCE
62 582 LANGLEY GEORGE BERNARD 05:19:46:000 E 17 284.00 WINDLESHAM SURREY, Royaume-Uni
63 96 PATUEL IAN 05:19:47:000 E 18 283.00 BEVILLE LE COMTE, France
64 930 MEUNIER ERIC 05:19:47:000 F 7 294.00 GHLIN, BELGIQUE
65 52 DULAURENT OLIVIER 05:19:48:000 D 27 274.00 CAMBRONNE LES CLERMONT, FRANCE
66 915 REMY BERTRAND 05:19:49:000 D 28 273.00 MONTREUIL, FRANCE
67 940 LEBEGUE GUY 05:19:59:000 F 8 293.00 LOUVILLIERS EN DROUAIS, FRANCE
68 334 HINDLE GRAHAM 05:20:11:000 E 19 282.00 ZUG, SUISSE
69 726 NGUYEN VAN TU ISABELLE 05:20:12:000 AB 1 300.00 LE HAVRE, FRANCE
70 212 CHARPENTIER SYLVAIN 05:20:13:000 C 13 288.00 FRESNAY LES CHAUMES, FRANCE
71 227 LE DISSEZ CHRISTOPHE 05:20:13:000 D 29 272.00 MARCOUSSIS, FRANCE
72 244 PATIN ERIC 05:20:13:000 D 30 271.00 OUTREAU, FRANCE
73 520 BOUYSSOU JEAN LUC 05:20:13:000 F 9 292.00 BEAUVAIS, FRANCE
74 646 LANDO PHILIPPE 05:20:13:000 E 20 281.00 DURY, FRANCE
75 786 DOLFIN BART 05:20:13:000 F 10 291.00 AMSTERDAM, Pays-Bas
76 232 DABOVAL ARNAUD 05:20:14:000 C 14 287.00 AIRAINES, FRANCE
77 564 BAUDOUIN ERIC 05:20:14:000 E 21 280.00 CHEVRY COSSIGNY, FRANCE
78 565 MARTIN PATRICK 05:20:14:000 D 31 270.00 LESIGNY, FRANCE
79 175 LEMAIRE FABRICE 05:20:15:000 D 32 269.00 LYON, FRANCE
80 237 DUPORGE JEAN PIERRE 05:20:15:000 E 22 279.00 ANGRES, France
81 243 WAROT COME 05:20:15:000 D 33 268.00 EPERLECQUES, FRANCE
82 542 ENGLISH PETER 05:20:15:000 F 11 290.00 LINCOLN, Royaume-Uni
83 1617 DE RYCKE THOMAS 05:20:15:000 C 15 286.00 GENT, BELGIQUE
84 12 MARTIN PAUL 05:20:16:000 E 23 278.00 BRENTWOOD ESSEX, Royaume-Uni
85 192 ROOSE YANNIK 05:20:17:000 D 34 267.00 BRUXELLES, Belgique
86 638 GOUPILLE LIONEL 05:20:17:000 D 35 266.00 CHEVRY COSSIGNY, FRANCE
87 347 KYTE RICHARD 05:20:18:000 D 36 265.00 LONDRES, Royaume-Uni
88 550 CARRERE JACQUES 05:20:18:000 F 12 289.00 CHEVILLY LA RUE, FRANCE
89 723 CORBET PATRICK 05:20:18:000 E 24 277.00 VERSAILLES, FRANCE
90 217 WINANDY JEAN FRANCOIS 05:20:19:000 E 25 276.00 FLORIFFOUX, Belgique
91 235 GRANCHER FRANCIS 05:20:19:000 C 16 285.00 PARIS, FRANCE
92 684 BERTHOME MATHIEU 05:20:21:000 C 17 284.00 BRETEUIL, FRANCE
93 787 DIEPVINTS YVES 05:20:22:000 E 26 275.00 GRACE HOLLOGNE, BELGIQUE
94 622 VANTOMME JACQUES 05:20:26:000 E 27 274.00 CHENENG, FRANCE
95 348 DEZETAVE JEANNICK 05:20:36:000 F 13 288.00 AVESNES LES AUBERT, FRANCE
96 54 LEUCKX MARC 05:21:47:000 E 28 273.00 LENNIK, BELGIQUE
97 58 CASIMIR IGOR 05:21:47:000 D 37 264.00 NIVOLAS VERMELLE, France
98 250 ASSELIN DAVID 05:21:49:000 E 29 272.00 FEROLLES, FRANCE
100 558 BOUCHARD DIDIER 05:21:55:000 E 30 271.00 AUBERVILLE LA CAMPAGNE, FRANCE
101 714 MASTHIAS WILLIAM 05:21:55:000 E 31 270.00 LAMBERSART, FRANCE
102 617 BOUCHER THIERRY 05:21:56:000 E 32 269.00 AVION, FRANCE
103 278 MANCEAU DANIEL 05:21:57:000 F 14 287.00 FLEURIGNE, FRANCE
104 938 ROULOT GLENN 05:22:14:000 D 38 263.00 SAINT GERMAIN SUR AVRE, FRANCE
105 672 VAN GOETHEM PATRICK 05:22:46:000 C 18 283.00 BERCHEM, BELGIQUE
106 773 LELEU GUY 05:22:47:000 E 33 268.00 ESTREES ST DENIS, FRANCE
107 1604 TRINEL REGIS 05:23:14:000 F 15 286.00 BETHUNE, France
108 746 MAES CURT 05:24:14:000 E 34 267.00 GERAARDSBERGEN, BELGIQUE
110 311 LEWIS GREG 05:24:57:000 E 35 266.00 CUDDINGTON, FRANCE
111 747 OLIVIER DANNY 05:25:15:000 F 16 285.00 GERAARDSBERGEN, BELGIQUE
112 925 SAUVAGE THIBAULT 05:25:28:000 C 19 282.00 LAON, FRANCE
113 615 SCREVE BRUNO 05:25:30:000 E 36 265.00 HIRSON, France
114 161 DESPLACES ALAIN 05:27:00:000 G 2 299.00 POLEYMIEUX AU MT D OR, FRANCE
115 704 LANGFORD STEPHEN 05:27:20:000 E 37 264.00 BRISTOL, Royaume-uni
116 67 ESPOSITO ANDRE 05:27:21:000 F 17 284.00 SAINT JEAN DE MAURIENNE, France
117 752 SEGHERS GEERT 05:27:34:000 D 39 262.00 AALST, BELGIQUE
118 2014 LALOUX GUY 05:27:35:000 G 3 298.00 BEERSEL, Belgique
119 55 THOMASSON CHRISTOPHE 05:27:36:000 D 40 261.00 CIVRIEUX, FRANCE
120 293 SOULET VINCENT 05:27:36:000 C 20 281.00 HALLENCOURT, FRANCE
121 292 PAUCHET JOEL 05:27:37:000 F 18 283.00 SAILLY FLIBEAUCOURT, FRANCE
122 749 DERDER NOEL 05:27:37:000 G 4 297.00 GERAARDSBERGEN, BELGIQUE
123 505 GILBERT CEDRIC 05:27:38:000 C 21 280.00 REMOUCHAMP, BELGIQUE
124 31 GARD CHRISTOPHE 05:27:51:000 D 41 260.00 OBERNAI, FRANCE
125 203 HARRIS COLIN 05:27:55:000 F 19 282.00 LEWES EAST SUSSEX, Royaume-Uni
126 193 MARAGA CLAUDE 05:28:28:000 F 20 281.00 LAMBESC, France
127 85 VAN BRUSTEGHEM FRANCIS 05:28:46:000 F 21 280.00 LESVE, BELGIQUE
128 206 TAYLOR CHRISTOPHER 05:28:49:000 D 42 259.00 PENRITH, Royaume-Uni
129 225 LELEU PASCAL 05:30:04:000 D 43 258.00 FRANQUEVILLE SAINT PIERRE, FRANCE
130 226 LELEU JEROME 05:30:05:000 D 44 257.00 FRANQUEVILLE SAINT PIERRE, FRANCE
131 659 DOUYERE PHILIPPE 05:30:05:000 E 38 263.00 SAINT ETIENNE DU ROUVRAY, FRANCE
132 738 DUQUENOY MIKE 05:30:06:000 C 22 279.00 ABBEVILLE, FRANCE
133 367 MOREL DOMINIQUE 05:30:33:000 E 39 262.00 LA NEUVILLE EN HEZ, FRANCE
134 627 PINCHON J.LUC 05:31:08:000 F 22 279.00 TOTES, FRANCE
135 788 HALL STUART 05:31:08:000 F 23 278.00 LONDON, UK
136 784 CAMAAERTS PATRICE 05:31:17:000 E 40 261.00 FLAWINNE, BELGIQUE
137 1613 MANTOVANI ERIC 05:31:21:000 D 45 256.00 PORT/SEILLE, FRANCE
138 263 DURAND FRANCK 05:31:47:000 D 46 255.00 SARAN, FRANCE
139 169 LIGER DIDIER 05:31:58:000 E 41 260.00 MAILLY CHAMPAGNE, FRANCE
140 927 FLANDRE STEPHANE 05:31:58:000 C 23 278.00 EPERNAY, FRANCE
142 926 DURIN DIDIER 05:31:59:000 E 42 259.00 VERZY, FRANCE
143 798 VANROMPAY JOHAN 05:32:00:000 E 43 258.00 DIEST / SCHAFFEN, BELGIQUE
144 61 RUSSIAS JACQUES 05:32:20:000 G 5 296.00 AMBERT, France
145 553 BIRON ALAIN 05:32:21:000 E 44 257.00 VILLENEUVE D ALLIER, FRANCE
146 143 FORT PATRICE 05:32:22:000 F 24 277.00 JUAN LES PINS, FRANCE
147 760 LEJEUNE REGIS 05:32:22:000 F 25 276.00 TILLOY FLORIVILLE, FRANCE
148 922 GRILLON FABRICE 05:33:23:000 F 26 275.00 ARGENTEUIL, FRANCE
149 27 GROEN BOB 05:33:24:000 F 27 274.00 GOUDA, Pays-bas
150 737 DUHAUPAS GUY 05:33:24:000 G 6 295.00 ABBEVILLE, FRANCE
151 262 DUFOSSE FRANCOIS 05:33:25:000 D 47 254.00 VILLER S/ MAREUIL, FRANCE
152 599 CHURCHILL DAVID 05:33:26:000 E 45 256.00 ORPINGTON, Royaume-Uni
153 905 GUILLOCHON MICHEL 05:35:36:000 F 28 273.00 DRUCAT, FRANCE
154 789 GAUTIER ADRIAN 05:36:14:000 E 46 255.00 REDDITCH, Royaume-Uni
155 165 HAURAY DOMINIQUE 05:36:42:000 F 29 272.00 PIERRE CHATEL, FRANCE
156 260 DOMECQ BENOIT 05:36:44:000 E 47 254.00 LA TESTE DE BUCH, FRANCE
157 635 PRUD HOMME THIERRY 05:36:44:000 E 48 253.00 CORMEILLES EN PARISIS, FRANCE
158 314 CHENOIX RENE 05:36:56:000 E 49 252.00 MARCHE-EN-FAMENNE, BELGIQUE
160 47 LAINE CHRISTOPHE 05:37:23:000 D 48 253.00 LA SEYNE S/MER, FRANCE
161 230 FRERES JOSEPH 05:37:46:000 F 31 270.00 VIELSALM, BELGIQUE
162 234 BARCLAY DANNY 05:37:47:000 D 49 252.00 Letchworth, Hertfordshire, Royaume-Uni
163 521 MOHNEN JULE 05:37:47:000 G 7 294.00 AYWAILLE, BELGIQUE
164 730 COUTURIER LAURENT 05:37:47:000 E 50 251.00 PARIS, FRANCE
165 64 FUSTER LOUIS 05:37:48:000 G 8 293.00 ST MARTIN EN BRESSE, FRANCE
166 186 JORIS ALEX 05:37:48:000 F 32 269.00 MARCHE EN FAMENNE, BELGIQUE
167 1610 SEGARRT RUDI 05:37:48:000 E 51 250.00 DEINZE, BELGIQUE
168 137 DELGRANGE ALAIN 05:37:49:000 F 33 268.00 DENAIN, FRANCE
169 330 LORRAIN PASCAL 05:37:49:000 E 52 249.00 ANDRESY, FRANCE
170 608 GOEBEL EMILE 05:37:49:000 F 34 267.00 REMICHAMPAGNE, BELGIQUE
171 647 LABOURDET JEAN PHILIPPE 05:37:49:000 E 53 248.00 OSNY, FRANCE
172 732 POUPEL FRANCIS 05:37:49:000 F 35 266.00 HEROUVILLE, FRANCE
173 346 VAN RIJCKEGHEM WIM 05:37:50:000 E 54 247.00 ANZEGEM (KASTER), BELGIQUE
174 350 SANNIER JEAN LOUIS 05:37:50:000 F 36 265.00 AUPPEGARD, FRANCE
175 626 BONNET PASCAL 05:37:50:000 E 55 246.00 HIRSON, FRANCE
176 676 CRADDOCK STACEY 05:37:52:000 E 56 245.00 UPMINSTER, Royaume-Uni
177 942 VAN TIEGHEM STEFAN 05:37:52:000 E 57 244.00 OTEGEM, BELGIQUE
178 1600 SEYNS GUNTER 05:37:52:000 D 50 251.00 OTEGEM, BELGIQUE
179 335 GUILLAUME ALEXANDRE 05:37:56:000 D 51 250.00 FRANCONVILLE, FRANCE
180 687 LEBON OLIVIER 05:37:56:000 E 58 243.00 ST QUENTIN, FRANCE
181 640 DUBOIS ERIC 05:37:59:000 E 59 242.00 AIX NOULETTE, FRANCE
182 35 BISTONI MARCO 05:38:02:000 E 60 241.00 PERUGIA, ITALIE
183 205 DAEM PAUL 05:39:23:000 G 9 292.00 LEUVEN, BELGIQUE
184 273 LAVELOT BERTRAND/ANNE MARIE 05:39:54:000 E 61 240.00 COLOMBES, FRANCE
185 274 LAVELOT ANNE-MARIE 05:39:54:000 B 1 300.00 COLOMBES, FRANCE
186 734 CORBILLON CHRISTOPHE 05:40:28:000 D 52 249.00 MAREUIL-CAUBERT, FRANCE
187 761 LAMBOTTE JEAN JACQUES 05:40:29:000 F 37 264.00 MORMOIRON, FRANCE
189 612 JAGGER STEPHEN 05:41:48:000 E 63 238.00 GRETNA, Royaume-Uni
190 59 MASERATI SIMON 05:42:34:000 F 38 263.00 CHAMP SUR DRAC, FRANCE
191 945 MOREAU JURGEN 05:42:40:000 D 53 248.00 KORTRIJK, BELGIQUE
192 595 Garratt Martin 05:43:03:000 D 54 247.00 EN76JA, Royaume-Uni
193 625 FREMERY PATRICK 05:43:44:000 E 64 237.00 LOUVECIENNES, FRANCE
194 656 KUZMENKO EUGÔNE 05:44:40:000 G 10 291.00 FOURMIES, FRANCE
195 739 FOUQUET DANIEL 05:45:22:000 F 39 262.00 COLOMBES, France
196 629 VASSEUR ERIC 05:45:26:000 E 65 236.00 MERICOURT, FRANCE
197 936 GARNIER DOMINIQUE 05:45:47:000 F 40 261.00 LOUVILLIERS EN DROUAIS, FRANCE
198 718 CORDELLE JEAN PAUL 05:46:51:000 G 11 290.00 BALLANCOURT SUR ESSONNE, FRANCE
199 758 HAMBENNE PHILIPPE 05:46:51:000 E 66 235.00 VEDRIN, BELGIQUE
200 1608 DELAITRE PIERRE 05:46:51:000 F 41 260.00 WARLUIS, FRANCE
202 680 LEMARIE FRANCK 05:46:52:000 E 67 234.00 PICAUVILLE, FRANCE
203 912 FROST MARK 05:47:25:000 D 55 246.00 LEWES EAST SUSSEX, Royaume-Uni
204 911 FULLER NATASHA 05:47:26:000 A 1 300.00 LEWES, Royaume-Uni
205 40 MASTERS JON 05:48:03:000 E 68 233.00 CATERHAM, Royaume-Uni
206 1611 DESCHEERAEKER RIK 05:48:05:000 E 69 232.00 WAREGEM, BELGIQUE
207 919 LOWDEN JAMES 05:48:14:000 C 24 277.00 LEWES, Royaume-Uni
208 211 STANESCO JOEL 05:48:20:000 F 42 259.00 AUCALEUC, France
209 764 PETIT BERNARD 05:48:20:000 G 12 289.00 NEUX LES AUXY, FRANCE
210 783 BARTIAUX ROGER 05:48:20:000 F 43 258.00 NAMUR, BELGIQUE
211 951 DECAUWERT JEAN LUC 05:48:20:000 F 44 257.00 EMINES, BELGIQUE
212 785 MISEREZ ANTOINE 05:48:21:000 F 45 256.00 ZOTTEGEM, BELGIQUE
213 910 CERQUETTI CARLO 05:48:22:000 E 70 231.00 FLOREFFE, BELGIQUE
214 100 LAURENT HAMON 05:49:00:000 D 56 245.00 Oze, France
215 944 MOREAU GUNTER 05:49:02:000 D 57 244.00 OTEGEM, BELGIQUE
216 552 BRIAT MICHEL 05:49:07:000 G 13 288.00 L''HAY LES ROSES, FRANCE
217 164 DURNEZ LIEVE 05:49:09:000 AB 2 299.00 OOSTDUINKERKE, BELGIQUE
218 163 COMPERNOLLE FREDDY 05:49:10:000 E 71 230.00 OOSTDUINKERKE, BELGIQUE
219 215 LALLEMENT CHRISTIAN 05:49:10:000 F 46 255.00 STOUMONT, BELGIQUE
220 630 DUBOIS BERNARD 05:49:10:000 F 47 254.00 LIEVIN, FRANCE
221 728 HENQUEL MARC 05:49:10:000 F 48 253.00 NANCY, FRANCE
222 777 ROUGE JEAN LUC 05:49:10:000 F 49 252.00 BEAUVAL, FRANCE
223 214 LEMAIRE JEAN PAUL 05:49:11:000 F 50 251.00 LIERNEUX, BELGIQUE
224 537 SIGNORE PASCAL 05:49:11:000 E 72 229.00 PONTARME, France
225 605 TARDIVEAU DANIEL 05:49:11:000 E 73 228.00 VERNOU LA CELLE, France
226 1616 DOUZENEL PASCAL 05:49:11:000 E 74 227.00 NAMPS MARSNIL, FRANCE
227 614 PERROUELLE STEPHANE 05:49:12:000 E 75 226.00 ANGLESQUEVILLE L''ESNEVAL, FRANCE
228 201 DE ROECK PHILIPPE 05:49:13:000 D 58 243.00 CAUDRY, FRANCE
229 678 LEAMAN DAVID 05:49:14:000 F 51 250.00 ORSETT, France
230 585 COLLINSON JEREMY 05:49:49:000 F 52 249.00 GRAYS, France
231 937 DE CRAENE JAN 05:51:25:000 D 59 242.00 ADEGEM, BELGIQUE
232 934 RIEBBELS LUC 05:51:28:000 E 76 225.00 LEMBEKE, BELGIQUE
233 727 GERME SYVLAIN 05:51:29:000 D 60 241.00 ISQUES, FRANCE
234 221 MARTIN JACK 05:51:42:000 G 14 287.00 VOREPPE, FRANCE
235 21 VANSPRINGEL JOSEPH 05:51:58:000 E 77 224.00 Vosselaar, Belgique
236 634 DUBOIS GERARD 05:51:58:000 G 15 286.00 BEAUVOIS-EN-CAMBRESIS, FRANCE
237 781 GABELLES MAURICE 05:51:58:000 F 53 248.00 VIESLY, FRANCE
238 943 MICHOLT JOHAN 05:52:03:000 E 78 223.00 OTEGEM, BELGIQUE
239 523 LENOIR DANIEL 05:53:22:000 E 79 222.00 GUARBECQUE, FRANCE
240 49 ARENS JEAN CLAUDE 05:53:23:000 F 54 247.00 FROIDECONCHE, FRANCE
241 50 DICKHOUT JAN 05:53:23:000 F 55 246.00 EINDHOVEN, Pays-Bas
242 517 MORLEY ANDREW 05:53:24:000 E 80 221.00 TUNBRIDGE WELLS KENT, Royaume-Uni
243 559 HINTON MATHEW 05:53:49:000 D 61 240.00 LINCOLN, Royaume-Uni
244 744 LEQUIEN STEPHANE 05:54:50:000 D 62 239.00 REBREUVE SUR CANCHE, France
245 25 CHOUFFART JACQUES 05:55:35:000 F 56 245.00 SPRIMONT, BELGIQUE
246 918 LOWDEN DOMINIC 05:55:39:000 E 81 220.00 LEWES, Royaume-Uni
247 935 VAN HEVEL WIM 05:55:41:000 D 63 238.00 LEMBEKE, BELGIQUE
248 1618 HIGGINS AODAN 05:55:48:000 D 64 237.00 WALLINGTON, Royaume-Uni
249 933 CATTOIR MARC 05:55:50:000 E 82 219.00 LEMBEKE, BELGIQUE
250 655 VERDOT PATRICK 05:56:21:000 E 83 218.00 BAZICOURT, France
251 921 ALLARD THIERRY 05:56:21:000 E 84 217.00 ST JANS CAPPEL, FRANCE
252 719 LAUGEROTTE FRANCOIS 05:56:30:000 F 57 244.00 TROYES, FRANCE
253 633 COTE DES COMBES MICHEL 05:56:31:000 G 16 285.00 ST PATHUS, FRANCE
254 941 HOUPPIN REGIS 05:56:36:000 E 85 216.00 HAM, FRANCE
255 366 DE SWAEF STEFAN 05:56:47:000 E 86 215.00 NEDERZWALM, BELGIQUE
256 632 THOMASSE GERARD 05:57:09:000 F 58 243.00 LA GARENNE COLOMBES, FRANCE
257 946 FEISTRAID KAREL 05:57:11:000 D 65 236.00 HARELBEKE, BELGIQUE
258 923 SAUVAGE J.CLAUDE 05:57:27:000 F 59 242.00 EPPES, FRANCE
259 904 WORST LOURENS 05:57:38:000 D 66 235.00 GELDROP, Pays-Bas
260 580 VAN GOETHEM ANGELO 05:57:54:000 D 67 234.00 STEKENE, BELGIQUE
261 765 GRAHAM JEFFS 05:58:00:000 F 60 241.00 CROWBOROUGH, Royaume-Uni
262 254 BONNEAU GERARD 05:58:05:000 G 17 284.00 BOU, FRANCE
263 620 MEUNIER PHILIPPE 05:58:24:000 D 68 233.00 MONTREUIL EN CAUX, FRANCE
264 628 KIENZLER THIERRY 05:58:24:000 E 87 214.00 CORMEILLES EN PARISIS, FRANCE
265 679 MACKINTOSH STEVE 05:58:45:000 E 88 213.00 RAINHAM, Royaume-uni
266 1605 CABUZEL JEAN MICHEL 05:58:45:000 F 61 240.00 BARON, FRANCE
267 908 VAN RECHEM CHRISTIAN 05:59:02:000 G 18 283.00 RIXENSART, BELGIQUE
268 268 GUIDEZ JEAN MICHEL 05:59:39:000 F 62 239.00 LAMBERSART, France
269 543 HINCHCLIFFE BOB 06:00:38:000 G 19 282.00 DONCASTER, Royaume-Uni
270 697 TOPLISS MARK 06:00:41:000 E 89 212.00 DERBYS, Royaume-Uni
271 700 BENNETT MATHEW 06:00:41:000 D 69 232.00 SOUTH DERBYS, Royaume-Uni
273 909 BARNIER ALAIN 06:01:15:000 E 90 211.00 GILLOCOURT, FRANCE
274 251 OMONT ALBERT 06:01:18:000 F 63 238.00 SABRAS, FRANCE
275 569 WATSON IAN 06:01:19:000 G 20 281.00 CARLISLE, Royaume-Uni
276 683 LINDEKENS PASCAL 06:01:20:000 E 91 210.00 BUIRE, FRANCE
277 342 POUJADE JEAN CLAUDE 06:01:21:000 F 64 237.00 PARIS, FRANCE
278 295 DADIER SIMON 06:01:22:000 C 25 276.00 DRUCAT, FRANCE
279 209 VASSEUR BRUNO 06:01:50:000 E 92 209.00 OUTREAU, France
280 589 WARD IAN 06:02:23:000 F 65 236.00 BLOMLEY, Royaume-uni
281 766 BARLING PETER 06:03:17:000 C 26 275.00 UCKFIELD, Royaume-Uni
282 360 LOWDEN BENJAMIN 06:03:29:000 E 93 208.00 BURY ST EDWONDS, Royaume-Uni
283 674 DE MAEYER REGINALD 06:04:57:000 E 94 207.00 SINAAI, BELGIQUE
284 532 BROOKS KEITH 06:05:10:000 G 21 280.00 CHURT FARNHAM SURREY, Royaume-Uni
286 258 COUTANCEAU PHILIPPE 06:06:11:000 E 95 206.00 BOU, FRANCE
287 706 GIBBS MARTIN 06:07:04:000 E 96 205.00 LONDRES, Royaume-Uni
288 525 DEPOURCQ ERIC 06:07:19:000 E 97 204.00 BRUXELLES, BELGIQUE
289 560 FOSTER LEE 06:07:20:000 F 66 235.00 CARLISLE, Royaume-Uni
290 555 PRULHIERE ALAIN 06:08:11:000 G 22 279.00 CARRIERE SOUS POISSY, FRANCE
291 597 BOT ERIC 06:08:12:000 E 98 203.00 LOISON SOUS LENS, FRANCE
292 125 PEGUIN BERNARD 06:09:22:000 F 67 234.00 COUPVRAY, FRANCE
293 743 JAUNIAUX ALAIN 06:09:28:000 F 68 233.00 SOIGNIES, BELGIQUE
294 152 AMOUROUX GUY 06:09:34:000 G 23 278.00 Valence, France
295 775 LEMAITRE J.CLAUDE 06:09:38:000 G 24 277.00 CUCQ, FRANCE
297 729 DERVEAUX FRANCIS 06:10:33:000 E 99 202.00 GUISE, FRANCE
298 506 PRIESTLEY PETER 06:10:41:000 F 69 232.00 CARLISLE, Royaume-Uni
299 587 SHADDOCK ANDREW 06:10:42:000 E 100 201.00 CARLISLE, Royaume-Uni
300 616 PLANCHON DOMINIQUE 06:12:07:000 D 70 231.00 RAVENEL, FRANCE
301 610 SELES MARCEL 06:12:08:000 G 25 276.00 STEKENE, BELGIQUE
302 924 MERLEVEDE FREDERIC 06:12:09:000 E 101 200.00 BAILLEUL, FRANCE
303 686 GOOSSENS RUDY 06:13:30:000 E 102 199.00 SCHEPDAAL, BELGIQUE
304 668 ARIS DAVE 06:13:31:000 E 103 198.00 LONDON, Royaume-Uni
305 670 STONE JAMES 06:13:31:000 D 71 230.00 SHORREHAM BY SEA, Royaume-Uni
306 707 DEMARE LAURENT 06:13:31:000 E 104 197.00 GODERVILLE, FRANCE
307 675 LYDON MARTIN 06:13:33:000 D 72 229.00 LONDON, Royaume-Uni
308 708 BAILLEUL THOMAS 06:14:03:000 C 27 274.00 ST LAURENT BLANGY, FRANCE
309 568 DE BECKER WILLEM 06:15:15:000 E 105 196.00 GENT, BELGIQUE
310 1609 LEPINE BENEDICTE 06:16:29:000 A 2 299.00 BARENTIN, FRANCE
311 691 HALL ANDY 06:16:30:000 F 70 231.00 STAFFORSHIRE, Royaume-Uni
312 1607 MAGNAN DENIS 06:16:30:000 D 73 228.00 LA COUTURE BOUSSEY, FRANCE
313 2217 MANCHE PHILIPPE 06:17:03:000 E 106 195.00 REIMS, France
314 716 GICQUEL SERGE 06:17:21:000 F 71 230.00 MOLLANS SUR OUVEZE, France
315 710 MACKAY SCOTT 06:17:54:000 D 74 227.00 LONDON, Royaume-Uni
316 770 KUENHEN JEROME ET SYLVIE 06:18:51:000 E 107 194.00 ABBEVILLE, France
317 294 CAILLY JEAN FRANCOIS 06:18:52:000 E 108 193.00 MOYENNEVILLE, FRANCE
318 782 MICHAUX J.FRANCOIS 06:19:42:000 E 109 192.00 ABBEVILLE, FRANCE
319 740 HECQUET MARC 06:19:56:000 F 72 229.00 ABBEVILLE, FRANCE
320 717 VANDEN WIJNGAERT ARNE 06:21:03:000 D 75 226.00 Zonhoven, Belgique
321 947 DEVOS KITY 06:21:03:000 AB 3 298.00 ZWEVEGEM, BELGIQUE
322 313 ORWIN JOHN 06:21:04:000 G 26 275.00 LONDRES, Royaume-Uni
323 920 MALLIEN PHILIPPE 06:21:05:000 E 110 191.00 EGHEZEE, BELGIQUE
324 321 CORNE PHILIPPE 06:23:15:000 F 73 228.00 ALLONVILLE, France
325 588 HORTON CHARLES 06:23:41:000 G 27 274.00 BROMLEY, Royaume-Uni
326 162 CHARDON CORINNE 06:23:48:000 AB 4 297.00 PIERRE CHATEL, FRANCE
327 570 JACKSON SAMMY 06:23:48:000 G 28 273.00 CARLISLE, Royaume-Uni
328 592 BOISSADIE JEAN 06:25:41:000 G 29 272.00 PUISEUX EN RETZ, FRANCE
329 736 DUCHEMIN BERNARD 06:29:02:000 E 111 190.00 VILLERS SUR MAREUIL, FRANCE
330 285 ROCHER DENIS 06:29:03:000 F 74 227.00 JARGEAU, France
331 619 DUCRET MICHEL 06:29:03:000 G 30 271.00 AMIENS, France
332 606 COLEAUX MICHEL 06:31:30:000 E 112 189.00 ESCAUDAIN, FRANCE
333 720 MATHIEU DOMINIQUE 06:31:30:000 D 76 225.00 EVERE, BELGIQUE
334 703 GUERIN JEAN LOUP 06:32:02:000 E 113 188.00 QUINCAMPOIX, FRANCE
335 298 MANACH FRANCOIS 06:32:06:000 E 114 187.00 HALLENCOURT, FRANCE
336 724 LARIVIERE PHILIPPE 06:32:06:000 E 115 186.00 GUEMAPPE, FRANCE
337 621 MENARD FRANCK 06:32:07:000 D 77 224.00 THELUS, FRANCE
338 754 JACOBS WIL 06:32:17:000 G 31 270.00 STEENSEL, Pays-Bas
339 715 LEJEUNE DOMINIQUE 06:32:18:000 F 75 226.00 GODERVILLE, FRANCE
340 948 SEYNS PIETER 06:33:31:000 C 28 273.00 OTEGEM, BELGIQUE
341 547 KING PAUL 06:33:59:000 E 116 185.00 CUMBRIA, Royaume-Uni
342 604 COQUET JOEL 06:34:32:000 E 117 184.00 ST OUEN, FRANCE
343 607 DESCAMPS DENIS 06:34:32:000 D 78 223.00 FLIXECOURT, FRANCE
344 644 MICHEL CAMILLE 06:35:13:000 G 32 269.00 CHAMPILLON, FRANCE
345 170 DEMARCHE LEOPOLD 06:35:23:000 G 33 268.00 BAILLONVILLE, BELGIQUE
346 623 GRATTEPANCHE DENIS 06:35:27:000 E 118 183.00 LE PERREUX, FRANCE
347 721 COOK ALISTAIR 06:36:13:000 E 119 182.00 WEYBRIDGE SURREY, Royaume-Uni
348 514 HARQUIN ALAIN 06:36:17:000 F 76 225.00 NAMPONT ST MARTIN, FRANCE
349 583 HOWLETT DUCAN 06:36:38:000 E 120 181.00 CARLISLE, Royaume-Uni
350 695 WILLIAMS ALLAN 06:36:46:000 G 34 267.00 SUTTON COLDFIELD, Royaume-Uni
351 750 DE BOECK JOHAN 06:36:56:000 F 77 224.00 BEVER, BELGIQUE
352 557 TIESSE MICHEL 06:37:19:000 E 121 180.00 ROSNY SOUS BOIS, FRANCE
353 618 QUERTIER DOMINIQUE 06:37:55:000 F 78 223.00 HOUQUETOT, FRANCE
354 733 LETURCQ J.PIERRE 06:39:10:000 G 35 266.00 PONT DE METZ, FRANCE
355 281 MORENAS CHRISTIAN 06:40:40:000 E 122 179.00 MIRABEL AUX BARONNIES, FRANCE
356 1620 DAVID MARIA 06:40:40:000 AB 5 296.00 LONDRES, Royaume-Uni
357 631 CHATELAIN YVES 06:41:14:000 F 79 222.00 GUISE, FRANCE
358 594 TAYLOR HARVEY 06:41:20:000 G 36 265.00 CARLISLE, Royaume-Uni
359 753 FOUBERT GASTON 06:41:34:000 F 80 221.00 GERAARDSBERGEN, BELGIQUE
360 931 AISSI NADIR 06:44:27:000 E 123 178.00 VILLENEUVE LE ROI, FRANCE
361 768 HULSBOS BERT 06:48:07:000 F 81 220.00 ALPHEN AAN DEN RIJN, Pays-Bas
362 705 FOLL GILLES 06:48:17:000 E 124 177.00 CHANTILLY, FRANCE
363 769 HULSOBS GERARD 06:48:26:000 E 125 176.00 VOURSCHOTEN, Pays-Bas
364 772 DEVOYE PATRICK 06:52:33:000 F 82 219.00 FREUCHY, France
365 351 CARON MICHEL 06:52:34:000 F 83 218.00 ARMENTIERES, FRANCE
366 518 PORTER MARTIN 06:52:35:000 E 126 175.00 ASCOT, France
367 567 HUTCHINGS ANDREW 06:53:24:000 D 79 222.00 SYDENHAM, LONDON, Royaume-Uni
368 303 CLARYSSE EDDY 06:53:35:000 E 127 174.00 ZWEVEGEM, BELGIQUE
369 698 STURDY SUSAN 06:54:38:000 AB 6 295.00 BURNTWOOD, Royaume-Uni
370 584 SCOTT KEVIN 06:58:51:000 E 128 173.00 CARLISLE, Royaume-Uni
371 540 VAN ECK BERT 07:00:05:000 F 84 217.00 MIDDELBURG, Pays-Bas
372 648 DALHUIJSEN ANTON 07:00:05:000 F 85 216.00 , Pays-Bas
373 649 SNELLER WIM 07:00:05:000 F 86 215.00 LEIDEN, Pays-Bas
374 189 DIEDERICH CHRISTIAN 07:00:54:000 E 129 172.00 VILVOORDE, BELGIQUE
375 1602 LECOQ MARCEL 07:01:17:000 G 37 264.00 VERNEUIL SUR SEINE, FRANCE
376 9 SANNIER ANTOINE 07:01:29:000 C 29 272.00 PARIS, France
377 8 SANNIER HENRI 07:01:37:000 F 87 214.00 PARIS, France
378 257 COLLIN THIERRY 07:01:38:000 E 130 171.00 ST LO, FRANCE
379 272 JARRETON DIDIER 07:01:38:000 F 88 213.00 MOUTHIERS SUR BOEME, FRANCE
380 296 DESPREZ MATHIEU 07:01:38:000 D 80 221.00 ERONDELLE, France
381 361 BOITIER JEAN CLAUDE 07:01:38:000 G 38 263.00 PARIS, FRANCE
382 652 GEORGET MAURICE 07:01:38:000 F 89 212.00 NOGENT SUR OISE, FRANCE
383 653 PICCOLI DIDIER 07:01:38:000 D 81 220.00 CREIL, FRANCE
384 654 PICCOLI BERNARD 07:01:38:000 F 90 211.00 LAIGNEVILLE, FRANCE
385 755 ANQUET CHRISTIAN 07:01:38:000 E 131 170.00 HUPPY, FRANCE
386 261 DUFLOT BERNARD 07:01:39:000 E 132 169.00 ABBEVILLE, France
387 299 SANNIER PIERRE 07:01:39:000 F 91 210.00 QUESNOY LE MONTANT, FRANCE
388 271 INDURAIN ROBERT 07:01:40:000 G 39 262.00 BEAUMONT LE ROGER, France
389 277 MALOT BERNARD 07:01:40:000 F 92 209.00 HAUTELUCE, FRANCE
390 266 GRIGNON RENE 07:01:41:000 F 93 208.00 CONFLANS STE HONORINE, FRANCE
391 288 VALLEE JOSE 07:01:41:000 F 94 207.00 RUEIL, FRANCE
392 939 MIGNOT MICHEL 07:01:42:000 F 95 206.00 MONTMAIN, FRANCE
393 357 LAMOTTE MICHEL 07:01:43:000 G 40 261.00 GLISY, FRANCE
394 358 SOUFFLET JEAN PIERRE 07:01:43:000 G 41 260.00 VILLERS BRETONNEUX, FRANCE
395 307 CHEN LAWTON 07:02:44:000 E 133 168.00 MALDON, France
396 596 LAMARCHE ERIC 07:02:45:000 E 134 167.00 AVON, FRANCE
397 353 DESBROSSE FRANCOIS 07:02:47:000 F 96 205.00 CONGY, FRANCE
398 778 TRIBOU GERARD 07:04:07:000 F 97 204.00 AMIENS, FRANCE
399 643 BERTIN ALAIN 07:04:54:000 E 135 166.00 SOISSONS, FRANCE
400 642 BOURBIER FRANCOIS 07:04:55:000 E 136 165.00 BILLY SUR AISNE, FRANCE
401 645 PARADIS PATRICK 07:04:55:000 E 137 164.00 BELLEU, FRANCE
402 651 ANDRE DIDIER 07:06:51:000 E 138 163.00 NOGENT SUR OISE, FRANCE
403 598 BURGOINE PAUL 07:07:42:000 E 139 162.00 LONDON, Royaume-Uni
404 591 MITCHELL TIM 07:07:43:000 E 140 161.00 LONDON, Royaume-Uni
405 316 BOON WIM 07:08:11:000 D 82 219.00 LIERDE, Belgique
406 901 GOSSEYE VIC 07:08:11:000 D 83 218.00 LIERDE, BELGIQUE
407 265 GRESSIER LUCIEN 07:08:34:000 G 42 259.00 LAMBERSART, FRANCE
408 507 ELIAS JACOB 07:08:35:000 E 141 160.00 DAGENHAM ESSEX, Royaume-uni
409 903 VERPLANCKEM PAUL 07:09:20:000 E 142 159.00 ZOTTEGEM, BELGIQUE
410 286 SCHMITT DENIS 07:10:35:000 E 143 158.00 RIEDISHEIM, FRANCE
411 914 GOURDE ARMEL 07:11:09:000 F 98 203.00 GAMACHES, FRANCE
412 571 CORTON ANDREW 07:12:55:000 E 144 157.00 COLCHESTER, Royaume-Uni
413 255 BROUTIN JEAN MARIE 07:14:32:000 G 43 258.00 COURRIERES, FRANCE
414 545 CASEY CHARLES 07:19:58:000 E 145 156.00 LONDON, Royaume-Uni
415 6 MARIE THIERRY 07:20:41:000 E 146 155.00 MARTINVAST, France
416 735 DOURLENS LAURENT 07:21:05:000 E 147 154.00 ABBEVILLE, FRANCE
417 742 RAUX JEAN 07:21:06:000 G 44 257.00 RIVERY, FRANCE
419 712 CAUCHY STEPHANE 07:25:04:000 D 84 217.00 SALOUEL, FRANCE
420 907 AUBRON BERNARD 07:29:55:000 G 45 256.00 CAOURS L HENRE, FRANCE
421 906 THIBOUW PATRICK 07:30:13:000 F 99 202.00 VAUCHELLES LES QUENOY, FRANCE
422 913 CLOAREC JEAN NOEL 07:36:06:000 E 148 153.00 PIERRECOURT, FRANCE
423 546 FOTHERINGHAM TIM 07:40:45:000 E 149 152.00 LONDON, Royaume-Uni
424 190 FERCHAUD LIONEL 07:44:26:000 C 30 271.00 Fleurville, France
425 792 SIAU PEDRO 07:47:28:000 D 85 216.00 WELLE, BELGIQUE
426 902 VAN DER BIEST JAN 07:47:36:000 C 31 270.00 NIEUWERKERKEN, BELGIQUE
427 793 HICKMOTT TONY 07:52:37:000 G 46 255.00 LONDRES, Royaume-Uni
428 187 GOUARD ANICK 08:02:31:000 B 2 299.00 PETIT APPEVILLE, FRANCE
429 364 CLANCY PATRICK 08:03:27:000 E 150 151.00 RICHMOND, Royaume-Uni
430 340 WENSLEY PAUL 08:05:47:000 F 100 201.00 COCKERMOUTH CUMBRIA, Royaume-Uni
431 503 GIBSON DAVE 08:07:50:000 E 151 150.00 MAIDSTONE, Royaume-Uni
432 504 CLARKE STEPHEN 08:07:50:000 E 152 149.00 MAIDSTONE, Royaume-Uni
433 508 MILNE ROBERT 08:09:29:000 F 101 200.00 STAFFORDSHIRE, Royaume-Uni
434 510 FRANCIS JOHN 08:09:32:000 E 153 148.00 STAFFORDSHIRE, Royaume-Uni
435 511 OWEN FRANCES 08:09:32:000 A 3 298.00 STAFFORDSHIRE, Royaume-Uni
436 745 VARLET JOSE 08:12:15:000 F 102 199.00 GRANDVILLIERS, FRANCE

GF Gassin Golfe de Saint Tropez

Après une saison 2020 très particulière et face à cette pandémie qui s'étire en longueur, nous avons dû nous adapter.

Ainsi, c'est avec beaucoup de regrets que nous vous annonçons que GF Gassin Golfe de Saint Tropez ne sera pas organisée en 2021.

Nous travaillons afin que vous puissiez relever le défi de manière alternative.

Nous vous tiendrons informés.
TOP